Time;durP1;ratioP1;P1;durP2;ratioP2;P2;SDS_P1;SDS_P2;PMS_P1;PMS_P2;Temp;Humidity;BMP_temperature;BMP_pressure;BME280_temperature;BME280_humidity;BME280_pressure;Samples;Min_cycle;Max_cycle;Signal;HPM_P1;HPM_P2
2021/05/22 11:56:13;;;;;;;;;0.00;0.00;;;;;19.95;57.43;100335.63;5019354;28;45300;-62
2021/05/22 11:58:43;;;;;;;;;0.00;0.00;;;;;24.02;51.04;100318.38;5006387;28;45224;-58
2021/05/22 12:01:36;;;;;;;;;0.00;0.00;;;;;29.07;42.82;100328.59;4999664;28;45371;-57
2021/05/22 12:04:06;;;;;;;;;0.00;0.00;;;;;33.78;34.69;100315.53;5003695;28;45229;-61
2021/05/22 12:06:42;;;;;;;;;0.00;0.00;;;;;36.68;31.32;100314.66;5011772;28;46390;-59
2021/05/22 12:09:08;;;;;;;;;0.00;0.00;;;;;39.11;30.46;100311.94;5012508;28;45397;-60
2021/05/22 12:11:36;;;;;;;;;0.00;0.00;;;;;41.13;28.67;100308.31;5009392;28;45382;-60
2021/05/22 12:14:06;;;;;;;;;0.00;0.00;;;;;42.56;23.77;100315.31;4997272;28;45502;-59
2021/05/22 12:16:32;;;;;;;;;15.00;13.75;;;;;43.14;23.64;100309.59;5007821;28;46495;-60
2021/05/22 12:18:57;;;;;;;;;0.00;0.00;;;;;41.98;21.40;100304.28;5006323;28;45591;-60
2021/05/22 12:21:28;;;;;;;;;0.00;0.00;;;;;38.37;19.73;100318.16;4986077;28;45333;-60
2021/05/22 12:24:08;;;;;;;;;0.00;0.00;;;;;34.94;24.05;100331.03;5004938;28;45488;-59
2021/05/22 12:26:34;;;;;;;;;0.00;0.00;;;;;31.94;21.64;100320.47;5003520;28;46602;-60
2021/05/22 12:28:59;;;;;;;;;0.00;0.00;;;;;29.39;23.75;100345.75;4999690;28;45551;-63
2021/05/22 12:31:25;;;;;;;;;0.00;0.00;;;;;27.30;25.67;100333.31;4986123;28;45298;-60
2021/05/22 12:34:05;;;;;;;;;0.00;0.00;;;;;25.86;28.22;100315.72;5008636;28;45365;-61
2021/05/22 12:36:32;;;;;;;;;0.00;0.00;;;;;25.30;29.77;100317.72;5006661;28;45430;-61
2021/05/22 12:38:57;;;;;;;;;0.00;0.00;;;;;24.92;31.43;100312.56;5013127;28;45283;-60
2021/05/22 12:41:33;;;;;;;;;0.00;0.00;;;;;24.48;30.90;100301.03;4967419;28;45455;-59
2021/05/22 12:43:59;;;;;;;;;0.00;0.00;;;;;24.01;31.79;100301.44;5000557;28;45708;-59
2021/05/22 12:46:29;;;;;;;;;0.00;0.00;;;;;23.58;32.73;100296.75;5003051;28;48668;-59
2021/05/22 12:49:19;;;;;;;;;0.00;0.00;;;;;23.18;33.62;100293.47;5003633;28;45562;-60
2021/05/22 12:51:45;;;;;;;;;0.00;0.00;;;;;22.87;33.93;100289.59;5002261;28;45328;-60
2021/05/22 12:54:28;;;;;;;;;0.00;0.00;;;;;22.58;33.22;100298.97;5010481;28;45631;-59
2021/05/22 12:57:00;;;;;;;;;0.00;0.00;;;;;22.29;34.03;100307.22;5015945;28;46643;-59
2021/05/22 12:59:25;;;;;;;;;0.00;0.00;;;;;22.02;34.34;100301.00;5016612;28;45521;-59
2021/05/22 13:02:29;;;;;;;;;0.00;0.00;;;;;21.66;34.64;100307.56;5027266;28;45428;-58
2021/05/22 13:05:04;;;;;;;;;0.00;0.00;;;;;21.36;34.87;100338.25;5020388;28;47170;-59
2021/05/22 13:07:40;;;;;;;;;0.00;0.00;;;;;20.64;40.49;100351.00;5013282;28;46390;-60
2021/05/22 13:10:07;;;;;;;;;0.00;0.00;;;;;19.83;40.94;100354.78;5012829;28;45668;-60
2021/05/22 13:12:32;;;;;;;;;0.00;0.00;;;;;19.19;41.01;100339.44;5012931;28;45396;-60
2021/05/22 13:15:05;;;;;;;;;0.00;0.00;;;;;18.76;41.44;100331.25;5016605;28;45502;-61
2021/05/22 13:17:47;;;;;;;;;0.00;0.00;;;;;18.50;41.71;100342.31;5005561;28;45566;-61
2021/05/22 13:20:32;;;;;;;;;0.00;0.00;;;;;18.34;43.52;100353.13;4984890;28;45338;-59
2021/05/22 13:23:19;;;;;;;;;0.00;0.00;;;;;18.15;44.47;100367.72;5006780;28;45565;-59
2021/05/22 13:25:55;;;;;;;;;0.00;0.00;;;;;18.26;44.75;100369.94;5021344;28;45522;-60
2021/05/22 13:28:27;;;;;;;;;0.00;0.00;;;;;18.64;44.78;100362.00;5016017;28;45402;-59
2021/05/22 13:31:13;;;;;;;;;0.00;0.00;;;;;19.10;45.26;100364.53;5011579;28;45217;-59
2021/05/22 13:33:38;;;;;;;;;0.00;0.00;;;;;19.42;44.53;100371.28;5015111;28;45288;-59
2021/05/22 13:36:04;;;;;;;;;0.00;0.00;;;;;19.60;43.56;100370.06;5012124;28;45683;-60
2021/05/22 13:38:29;;;;;;;;;0.00;0.00;;;;;19.56;43.42;100360.78;5015761;28;47050;-58
2021/05/22 13:40:54;;;;;;;;;0.00;0.00;;;;;19.43;43.23;100361.47;5004784;28;57688;-59
2021/05/22 13:43:20;;;;;;;;;0.00;0.00;;;;;19.26;43.71;100363.50;5018437;28;60342;-58
2021/05/22 13:45:46;;;;;;;;;0.00;0.00;;;;;19.21;43.88;100361.38;5007595;28;65241;-58
2021/05/22 13:48:12;;;;;;;;;0.00;0.00;;;;;19.20;42.93;100354.44;5007083;28;45571;-59
2021/05/22 13:50:37;;;;;;;;;0.00;0.00;;;;;19.13;42.90;100348.16;5009530;28;63433;-58
2021/05/22 13:53:03;;;;;;;;;0.00;0.00;;;;;19.11;42.73;100350.19;5003696;28;62853;-58
2021/05/22 13:55:28;;;;;;;;;0.00;0.00;;;;;19.15;42.74;100361.31;5015386;28;45380;-58
2021/05/22 13:57:53;;;;;;;;;0.00;0.00;;;;;19.11;41.00;100347.53;5020815;28;58351;-59
2021/05/22 14:00:19;;;;;;;;;0.00;0.00;;;;;19.03;41.50;100350.31;5021257;28;45220;-58
2021/05/22 14:02:45;;;;;;;;;0.00;0.00;;;;;18.95;41.54;100355.72;5019549;28;45474;-60
2021/05/22 14:05:11;;;;;;;;;0.00;0.00;;;;;18.90;41.35;100353.59;5005266;28;45487;-58
2021/05/22 14:07:37;;;;;;;;;0.00;0.00;;;;;18.84;41.03;100349.84;5009553;28;46712;-59
2021/05/22 14:10:03;;;;;;;;;0.00;0.00;;;;;18.85;40.93;100348.00;5011199;28;45436;-58
2021/05/22 14:12:29;;;;;;;;;0.00;0.00;;;;;18.95;39.80;100355.72;5009102;28;45470;-59
2021/05/22 14:14:54;;;;;;;;;0.00;0.00;;;;;19.05;39.37;100353.63;5004729;28;58376;-60
2021/05/22 14:17:19;;;;;;;;;0.00;0.00;;;;;19.23;39.67;100350.56;5010567;28;46351;-61
2021/05/22 14:19:45;;;;;;;;;0.00;0.00;;;;;19.29;39.48;100349.81;5006351;28;63323;-62
2021/05/22 14:22:10;;;;;;;;;0.00;0.00;;;;;19.22;39.80;100356.88;5010245;28;45443;-59
2021/05/22 14:24:36;;;;;;;;;0.00;0.00;;;;;19.00;39.29;100355.97;5012389;28;45444;-61
2021/05/22 14:27:02;;;;;;;;;0.00;0.00;;;;;18.80;39.83;100356.53;5001769;28;45936;-61
2021/05/22 14:29:27;;;;;;;;;0.00;0.00;;;;;18.60;40.75;100364.19;5001408;28;45372;-61
2021/05/22 14:31:53;;;;;;;;;0.00;0.00;;;;;18.36;41.31;100353.78;5010123;28;45322;-60
2021/05/22 14:34:18;;;;;;;;;0.00;0.00;;;;;18.24;42.49;100356.81;5014515;28;45485;-60
2021/05/22 14:36:44;;;;;;;;;0.00;0.00;;;;;18.27;42.40;100368.94;5002810;28;46985;-59
2021/05/22 14:39:10;;;;;;;;;0.00;0.00;;;;;18.28;42.67;100362.63;5005142;28;45304;-61
2021/05/22 14:41:35;;;;;;;;;0.00;0.00;;;;;18.32;42.51;100363.09;5001996;28;67162;-59
2021/05/22 14:44:00;;;;;;;;;4.00;0.00;;;;;18.38;42.55;100367.69;5005225;28;45294;-59
2021/05/22 14:46:26;;;;;;;;;0.00;0.00;;;;;18.34;43.22;100351.28;5011927;28;45910;-60
2021/05/22 14:48:52;;;;;;;;;0.00;0.00;;;;;18.30;46.29;100367.78;5017430;28;45420;-60
2021/05/22 14:51:18;;;;;;;;;0.00;0.00;;;;;17.93;47.48;100382.66;5000991;28;45439;-59
2021/05/22 14:53:45;;;;;;;;;0.00;0.00;;;;;17.71;46.78;100373.59;5001402;28;51329;-59
2021/05/22 14:56:10;;;;;;;;;1.00;0.00;;;;;17.48;47.15;100374.38;4991995;28;47188;-59
2021/05/22 14:58:35;;;;;;;;;0.00;0.00;;;;;17.46;47.62;100379.03;5003956;28;45646;-60
2021/05/22 15:01:01;;;;;;;;;0.00;0.00;;;;;17.49;48.74;100380.53;5013099;28;45699;-59
2021/05/22 15:03:27;;;;;;;;;0.00;0.00;;;;;17.60;47.61;100383.63;4977286;28;45481;-59
2021/05/22 15:05:52;;;;;;;;;0.00;0.00;;;;;17.68;47.67;100396.03;5010457;28;46064;-60
2021/05/22 15:08:18;;;;;;;;;0.00;0.00;;;;;17.75;46.87;100404.13;5001455;28;57578;-60
2021/05/22 15:10:44;;;;;;;;;0.00;0.00;;;;;17.79;46.57;100394.81;4995097;28;45389;-60
2021/05/22 15:13:09;;;;;;;;;0.00;0.00;;;;;17.83;47.28;100409.44;5017887;28;45319;-59
2021/05/22 15:15:34;;;;;;;;;0.00;0.00;;;;;17.82;46.99;100413.94;5002168;28;47952;-59
2021/05/22 15:18:00;;;;;;;;;0.00;0.00;;;;;17.80;47.06;100415.91;4984537;28;51688;-60
2021/05/22 15:20:25;;;;;;;;;0.00;0.00;;;;;17.76;47.63;100419.06;5005135;28;45431;-60
2021/05/22 15:22:51;;;;;;;;;0.00;0.00;;;;;17.73;47.86;100425.56;4998066;28;45417;-60
2021/05/22 15:25:16;;;;;;;;;0.00;0.00;;;;;17.69;48.67;100434.88;5001319;28;59145;-60
2021/05/22 15:27:42;;;;;;;;;0.00;0.00;;;;;17.66;48.04;100437.88;5009185;28;45420;-60
2021/05/22 15:30:09;;;;;;;;;0.00;0.00;;;;;17.59;48.05;100442.22;5000883;28;45443;-61
2021/05/22 15:32:34;;;;;;;;;0.00;0.00;;;;;17.49;47.90;100446.91;5003699;28;45570;-60
2021/05/22 15:34:59;;;;;;;;;0.00;0.00;;;;;17.29;48.76;100449.94;5006724;28;45999;-60
2021/05/22 15:37:25;;;;;;;;;0.00;0.00;;;;;17.00;48.96;100448.69;5015849;28;45384;-61
2021/05/22 15:39:50;;;;;;;;;0.00;0.00;;;;;16.80;48.13;100453.50;5004624;28;45617;-59
2021/05/22 15:42:16;;;;;;;;;0.00;0.00;;;;;16.59;47.32;100471.72;5005373;28;45990;-59
2021/05/22 15:44:42;;;;;;;;;0.00;0.00;;;;;16.28;48.74;100459.06;5007085;28;49517;-59
2021/05/22 15:47:09;;;;;;;;;0.00;0.00;;;;;16.04;48.57;100457.19;5003591;28;45418;-60
2021/05/22 15:58:29;;;;;;;;;0.00;0.00;;;;;15.11;58.68;100422.69;5005079;28;45461;-60
2021/05/22 16:00:37;;;;;;;;;0.00;0.00;;;;;15.17;56.06;100422.06;5011618;28;45466;-60
2021/05/22 16:08:05;;;;;;;;;0.00;0.00;;;;;15.68;61.17;100419.47;5007711;28;45711;-59
2021/05/22 16:10:30;;;;;;;;;0.00;0.00;;;;;15.88;59.57;100418.25;5007171;28;61108;-60
2021/05/22 16:12:55;;;;;;;;;0.00;0.00;;;;;16.10;58.29;100416.81;5000604;28;45642;-59
2021/05/22 16:15:21;;;;;;;;;0.00;0.00;;;;;16.33;56.85;100411.72;5004518;28;73232;-59
2021/05/22 16:17:47;;;;;;;;;0.00;0.00;;;;;16.56;53.85;100397.78;5004236;28;59278;-60
2021/05/22 16:20:13;;;;;;;;;0.00;0.00;;;;;16.76;54.96;100401.75;4996825;28;45561;-60
2021/05/22 16:22:38;;;;;;;;;0.00;0.00;;;;;17.00;53.69;100397.44;4995961;28;45486;-60
2021/05/22 16:25:04;;;;;;;;;0.00;0.00;;;;;17.26;52.38;100394.56;4999138;28;45834;-61
2021/05/22 16:27:29;;;;;;;;;1.00;0.00;;;;;17.46;48.65;100394.16;5010584;28;45450;-60
2021/05/22 16:29:55;;;;;;;;;0.00;0.00;;;;;17.49;49.53;100396.44;5002055;28;45883;-59
2021/05/22 16:32:20;;;;;;;;;0.00;0.00;;;;;17.45;48.51;100389.81;5021765;28;62903;-61
2021/05/22 16:34:45;;;;;;;;;0.00;0.00;;;;;17.46;46.27;100392.31;5003360;28;72728;-59
2021/05/22 16:37:11;;;;;;;;;0.00;0.00;;;;;17.36;46.33;100381.88;4997268;28;66439;-60
2021/05/22 16:39:36;;;;;;;;;0.00;0.00;;;;;17.35;46.61;100388.22;4991845;28;56730;-60
2021/05/22 16:42:02;;;;;;;;;0.00;0.00;;;;;17.37;46.94;100388.03;5000833;28;45476;-60
2021/05/22 16:44:28;;;;;;;;;0.00;0.00;;;;;17.36;46.90;100389.03;5014653;28;74852;-60
2021/05/22 16:46:54;;;;;;;;;0.50;0.00;;;;;17.34;47.49;100391.88;5001663;28;45978;-60
2021/05/22 16:49:19;;;;;;;;;0.00;0.00;;;;;17.25;47.67;100397.38;5009791;28;45708;-60
2021/05/22 16:51:45;;;;;;;;;0.00;0.00;;;;;17.10;48.41;100395.41;5008465;28;50392;-60
2021/05/22 16:54:10;;;;;;;;;2.25;0.00;;;;;16.97;48.73;100400.44;5000739;28;62890;-60
2021/05/22 16:56:36;;;;;;;;;0.00;0.00;;;;;16.92;48.83;100411.53;5002969;28;45630;-61
2021/05/22 16:59:02;;;;;;;;;0.00;0.00;;;;;16.94;48.11;100411.38;5009369;28;45527;-59
2021/05/22 17:01:28;;;;;;;;;0.00;0.00;;;;;17.00;48.71;100408.88;5009604;28;46017;-61
2021/05/22 17:03:53;;;;;;;;;0.00;0.00;;;;;17.16;47.07;100421.28;5013758;28;45771;-59
2021/05/22 17:06:19;;;;;;;;;0.00;0.00;;;;;17.20;46.03;100433.22;5008430;28;59294;-59
2021/05/22 17:08:44;;;;;;;;;0.00;0.00;;;;;17.21;45.79;100426.91;5006158;28;61459;-60
2021/05/22 17:11:09;;;;;;;;;0.00;0.00;;;;;17.26;45.43;100423.75;5002078;28;58138;-59
2021/05/22 17:13:35;;;;;;;;;1.00;0.00;;;;;17.31;45.66;100423.25;5010682;28;45522;-59
2021/05/22 17:16:01;;;;;;;;;0.00;0.00;;;;;17.35;45.15;100424.56;5011731;28;45449;-59
2021/05/22 17:18:26;;;;;;;;;0.00;0.00;;;;;17.40;45.31;100423.03;5007982;28;45638;-61
2021/05/22 17:20:52;;;;;;;;;0.00;0.00;;;;;17.39;45.21;100436.50;5006672;28;45289;-61
2021/05/22 17:23:18;;;;;;;;;0.00;0.00;;;;;17.41;44.79;100437.97;5012513;28;46337;-59
2021/05/22 17:25:43;;;;;;;;;0.00;0.00;;;;;17.37;44.58;100433.19;5001983;28;45221;-59
2021/05/22 17:28:08;;;;;;;;;0.00;0.00;;;;;17.31;44.57;100444.47;5005702;28;63583;-59
2021/05/22 17:30:34;;;;;;;;;0.00;0.00;;;;;17.28;44.81;100444.78;4988781;28;46754;-59
2021/05/22 17:33:00;;;;;;;;;0.00;0.00;;;;;17.29;44.72;100441.16;5016801;28;45651;-60
2021/05/22 17:35:25;;;;;;;;;0.00;0.00;;;;;17.29;44.90;100446.47;5001586;28;45307;-60
2021/05/22 17:37:51;;;;;;;;;0.00;0.00;;;;;17.29;45.02;100443.81;5000905;28;49305;-60
2021/05/22 17:40:19;;;;;;;;;0.00;0.00;;;;;17.28;44.45;100445.66;5003200;28;45186;-60
2021/05/22 17:42:45;;;;;;;;;0.00;0.00;;;;;17.25;44.38;100445.97;5014800;28;45457;-60
2021/05/22 17:45:13;;;;;;;;;0.00;0.00;;;;;17.22;44.15;100446.31;5000394;28;45322;-60
2021/05/22 17:47:38;;;;;;;;;0.00;0.00;;;;;17.19;43.46;100458.09;5000225;28;45362;-60
2021/05/22 17:50:06;;;;;;;;;0.00;0.00;;;;;17.17;44.00;100467.22;5009575;28;45508;-60
2021/05/22 17:52:31;;;;;;;;;0.00;0.00;;;;;17.15;43.79;100461.28;5002745;28;45929;-59
2021/05/22 17:54:56;;;;;;;;;0.00;0.00;;;;;17.18;43.96;100451.13;5009160;28;45418;-60
2021/05/22 17:57:22;;;;;;;;;10.00;10.00;;;;;17.22;43.05;100463.06;5009284;28;58907;-60
2021/05/22 17:59:47;;;;;;;;;0.00;0.00;;;;;17.26;43.02;100462.75;5006920;28;64166;-59
2021/05/22 18:02:12;;;;;;;;;0.00;0.00;;;;;17.25;43.10;100469.84;5013267;28;60306;-61
2021/05/22 18:04:38;;;;;;;;;0.00;0.00;;;;;17.18;42.92;100472.34;5009131;28;45293;-60
2021/05/22 18:07:05;;;;;;;;;0.00;0.00;;;;;17.10;42.86;100488.28;4986419;28;45486;-60
2021/05/22 18:09:30;;;;;;;;;0.00;0.00;;;;;16.98;43.06;100489.66;5000561;28;45407;-60
2021/05/22 18:11:55;;;;;;;;;0.00;0.00;;;;;16.88;43.58;100483.69;5003889;28;53596;-60
2021/05/22 18:14:21;;;;;;;;;0.00;0.00;;;;;16.80;43.41;100481.84;5003021;28;57861;-59
2021/05/22 18:16:46;;;;;;;;;0.00;0.00;;;;;16.78;44.33;100486.44;5003101;28;45919;-60
2021/05/22 18:19:12;;;;;;;;;0.00;0.00;;;;;16.71;44.20;100502.19;5015407;28;45423;-59
2021/05/22 18:21:37;;;;;;;;;0.00;0.00;;;;;16.60;43.82;100507.81;5001974;28;45415;-60
2021/05/22 18:24:03;;;;;;;;;0.00;0.00;;;;;16.46;44.16;100511.09;4997298;28;45441;-60
2021/05/22 18:26:29;;;;;;;;;0.00;0.00;;;;;16.38;43.81;100515.41;5013911;28;45359;-60
2021/05/22 18:28:54;;;;;;;;;0.00;0.00;;;;;16.30;43.55;100523.34;4990359;28;58580;-61
2021/05/22 18:31:20;;;;;;;;;0.00;0.00;;;;;16.17;43.48;100515.03;5003529;28;67416;-60
2021/05/22 18:33:45;;;;;;;;;0.00;0.00;;;;;16.04;43.54;100512.00;5017606;28;45376;-60
2021/05/22 18:36:12;;;;;;;;;0.00;0.00;;;;;15.95;43.56;100521.75;5012583;28;45338;-59
2021/05/22 18:38:37;;;;;;;;;0.00;0.00;;;;;15.85;43.68;100518.38;5014582;28;45561;-60
2021/05/22 18:41:02;;;;;;;;;0.00;0.00;;;;;15.77;43.88;100509.41;5012612;28;45302;-59
2021/05/22 18:43:28;;;;;;;;;0.00;0.00;;;;;15.71;44.02;100517.13;5018385;28;45379;-59
2021/05/22 18:45:53;;;;;;;;;0.00;0.00;;;;;15.63;43.82;100509.97;5006340;28;45313;-60
2021/05/22 18:48:20;;;;;;;;;0.00;0.00;;;;;15.56;44.13;100504.47;5006860;28;45324;-60
2021/05/22 18:50:45;;;;;;;;;0.00;0.00;;;;;15.50;44.22;100505.09;5018080;28;46341;-60
2021/05/22 18:53:11;;;;;;;;;0.00;0.00;;;;;15.45;44.00;100506.56;5006538;28;45697;-61
2021/05/22 18:55:36;;;;;;;;;0.00;0.00;;;;;15.43;44.07;100505.91;4982087;28;69910;-60
2021/05/22 18:58:02;;;;;;;;;0.00;0.00;;;;;15.41;44.42;100502.56;4999986;28;45286;-59
2021/05/22 19:00:27;;;;;;;;;0.00;0.00;;;;;15.38;44.30;100496.59;4997601;28;69869;-59
2021/05/22 19:02:53;;;;;;;;;0.00;0.00;;;;;15.40;44.37;100491.16;5001455;28;45244;-62
2021/05/22 19:05:18;;;;;;;;;0.00;0.00;;;;;15.41;44.50;100487.50;5008869;28;45420;-59
2021/05/22 19:07:44;;;;;;;;;0.00;0.00;;;;;15.41;44.59;100489.34;5008850;28;45718;-60
2021/05/22 19:10:10;;;;;;;;;0.00;0.00;;;;;15.41;44.50;100491.97;5012993;28;45484;-60
2021/05/22 19:12:37;;;;;;;;;0.00;0.00;;;;;15.41;44.60;100490.16;5011750;28;45533;-60
2021/05/22 19:15:03;;;;;;;;;0.00;0.00;;;;;15.42;44.26;100491.84;5017940;28;45504;-59
2021/05/22 19:17:28;;;;;;;;;0.00;0.00;;;;;15.40;44.48;100493.81;5007053;28;45651;-59
2021/05/22 19:19:53;;;;;;;;;0.00;0.00;;;;;15.39;44.33;100498.25;5011186;28;47057;-58
2021/05/22 19:22:20;;;;;;;;;0.00;0.00;;;;;15.43;44.31;100504.06;5016352;28;45505;-57
2021/05/22 19:24:46;;;;;;;;;0.00;0.00;;;;;15.43;44.36;100521.78;5017626;28;45367;-59
2021/05/22 19:27:11;;;;;;;;;0.00;0.00;;;;;15.43;44.52;100517.31;5016237;28;45666;-59
2021/05/22 19:29:37;;;;;;;;;0.00;0.00;;;;;15.38;44.22;100520.41;5014025;28;45873;-60
2021/05/22 19:32:02;;;;;;;;;0.00;0.00;;;;;15.37;44.27;100539.91;5012714;28;45885;-59
2021/05/22 19:34:28;;;;;;;;;0.00;0.00;;;;;15.34;44.65;100544.72;5008564;28;47370;-60
2021/05/22 19:36:53;;;;;;;;;0.00;0.00;;;;;15.31;44.60;100551.16;5007097;28;45340;-59
2021/05/22 19:39:20;;;;;;;;;0.00;0.00;;;;;15.30;44.51;100560.06;5017658;28;46644;-60
2021/05/22 19:41:45;;;;;;;;;0.00;0.00;;;;;15.27;44.83;100563.03;5015030;28;45865;-60
2021/05/22 19:44:11;;;;;;;;;0.00;0.00;;;;;15.22;44.94;100557.34;4999712;28;46024;-60
2021/05/22 19:46:36;;;;;;;;;0.00;0.00;;;;;15.12;45.42;100565.38;5015219;28;55240;-59
2021/05/22 19:49:01;;;;;;;;;0.75;0.75;;;;;15.09;45.75;100570.13;5010840;28;45916;-58
2021/05/22 19:51:27;;;;;;;;;0.00;0.00;;;;;15.03;46.02;100573.38;5002811;28;66535;-61
2021/05/22 19:53:55;;;;;;;;;0.00;0.00;;;;;14.97;46.07;100577.47;5000493;28;64143;-59
2021/05/22 19:56:20;;;;;;;;;0.00;0.00;;;;;14.93;46.31;100582.22;5005361;28;45350;-59
2021/05/22 19:58:45;;;;;;;;;0.00;0.00;;;;;14.86;47.10;100581.19;5013071;28;46085;-59
2021/05/22 20:01:11;;;;;;;;;0.00;0.00;;;;;14.81;47.10;100590.53;5016811;28;47226;-59
2021/05/22 20:03:37;;;;;;;;;0.00;0.00;;;;;14.77;47.01;100585.56;4998747;28;45590;-60
2021/05/22 20:06:03;;;;;;;;;0.00;0.00;;;;;14.72;47.57;100592.28;5010727;28;45493;-59
2021/05/22 20:08:29;;;;;;;;;0.00;0.00;;;;;14.68;47.67;100593.53;5006310;28;46157;-59
2021/05/22 20:10:55;;;;;;;;;0.00;0.00;;;;;14.66;48.34;100595.50;5001071;28;45582;-59
2021/05/22 20:13:21;;;;;;;;;0.00;0.00;;;;;14.63;48.41;100601.09;5012329;28;45550;-58
2021/05/22 20:15:46;;;;;;;;;0.00;0.00;;;;;14.62;48.37;100597.63;5001329;28;45652;-59
2021/05/22 20:18:11;;;;;;;;;0.00;0.00;;;;;14.62;48.63;100612.63;5009418;28;47237;-60
2021/05/22 20:20:37;;;;;;;;;0.00;0.00;;;;;14.60;48.72;100618.09;5019552;28;62711;-59
2021/05/22 20:23:02;;;;;;;;;0.00;0.00;;;;;14.59;49.21;100623.53;5002845;28;45854;-60
2021/05/22 20:25:28;;;;;;;;;0.00;0.00;;;;;14.53;49.20;100625.72;5007661;28;45802;-59
2021/05/22 20:27:53;;;;;;;;;0.00;0.00;;;;;14.46;49.49;100619.38;5000229;28;53796;-59
2021/05/22 20:30:19;;;;;;;;;0.00;0.00;;;;;14.41;49.63;100626.09;5018208;28;45838;-59
2021/05/22 20:32:46;;;;;;;;;0.00;0.00;;;;;14.38;49.82;100629.00;5008296;28;45549;-60
2021/05/22 20:35:11;;;;;;;;;0.00;0.00;;;;;14.32;50.29;100626.00;5002227;28;45444;-59
2021/05/22 20:37:37;;;;;;;;;0.00;0.00;;;;;14.24;50.42;100627.69;5009266;28;46387;-59
2021/05/22 20:40:04;;;;;;;;;0.00;0.00;;;;;14.20;50.49;100635.06;5014955;28;45592;-59
2021/05/22 20:42:29;;;;;;;;;0.00;0.00;;;;;14.15;50.98;100632.88;4986694;28;45887;-60
2021/05/22 20:44:55;;;;;;;;;0.00;0.00;;;;;14.12;50.85;100629.69;5025917;28;61597;-59
2021/05/22 20:47:20;;;;;;;;;0.00;0.00;;;;;14.10;51.23;100636.91;4985115;28;47132;-59
2021/05/22 20:49:46;;;;;;;;;0.00;0.00;;;;;14.11;51.92;100641.22;5005996;28;57724;-59
2021/05/22 20:52:15;;;;;;;;;0.00;0.00;;;;;14.09;51.45;100646.66;5004249;28;45638;-59
2021/05/22 20:54:41;;;;;;;;;0.00;0.00;;;;;14.06;51.65;100640.81;5018897;28;45368;-59
2021/05/22 20:57:07;;;;;;;;;0.00;0.00;;;;;14.04;51.49;100648.91;5011745;28;46580;-60
2021/05/22 20:59:32;;;;;;;;;0.00;0.00;;;;;14.02;52.16;100650.03;5018168;28;45367;-60
2021/05/22 21:01:58;;;;;;;;;0.00;0.00;;;;;13.99;51.96;100652.94;5017729;28;45506;-60
2021/05/22 21:04:23;;;;;;;;;0.00;0.00;;;;;13.99;52.57;100659.03;5017249;28;45686;-59
2021/05/22 21:06:49;;;;;;;;;0.50;0.00;;;;;13.92;53.04;100668.53;5013148;28;61845;-59
2021/05/22 21:09:14;;;;;;;;;0.00;0.00;;;;;13.88;53.11;100659.22;5002266;28;52933;-59
2021/05/22 21:11:45;;;;;;;;;0.00;0.00;;;;;13.86;53.43;100664.63;5012054;28;65284;-59
2021/05/22 21:14:12;;;;;;;;;0.00;0.00;;;;;13.81;53.94;100668.69;5002157;28;45513;-60
2021/05/22 21:16:38;;;;;;;;;0.00;0.00;;;;;13.76;53.71;100671.75;5004819;28;47196;-59
2021/05/22 21:19:03;;;;;;;;;0.00;0.00;;;;;13.73;53.97;100670.22;4999264;28;46841;-59
2021/05/22 21:21:29;;;;;;;;;0.00;0.00;;;;;13.68;54.24;100675.09;5006213;28;45560;-60
2021/05/22 21:23:54;;;;;;;;;0.00;0.00;;;;;13.64;54.39;100675.50;5016428;28;59604;-59
2021/05/22 21:26:19;;;;;;;;;0.00;0.00;;;;;13.62;54.93;100682.75;5015697;28;72762;-60
2021/05/22 21:28:45;;;;;;;;;0.00;0.00;;;;;13.54;54.79;100684.28;4989948;28;69509;-60
2021/05/22 21:31:10;;;;;;;;;0.00;0.00;;;;;13.46;55.17;100684.13;5011687;28;63294;-61
2021/05/22 21:33:35;;;;;;;;;0.00;0.00;;;;;13.45;55.34;100694.81;5008861;28;61922;-59
2021/05/22 21:36:01;;;;;;;;;0.00;0.00;;;;;13.43;55.31;100694.13;5017882;28;46426;-60
2021/05/22 21:38:26;;;;;;;;;0.00;0.00;;;;;13.40;55.77;100692.59;5018110;28;45781;-60
2021/05/22 21:40:52;;;;;;;;;0.00;0.00;;;;;13.37;55.37;100698.16;4999634;28;67502;-59
2021/05/22 21:43:17;;;;;;;;;0.00;0.00;;;;;13.35;55.77;100697.47;5016548;28;51432;-60
2021/05/22 21:45:42;;;;;;;;;0.00;0.00;;;;;13.37;55.77;100694.66;5003193;28;71203;-60
2021/05/22 21:48:08;;;;;;;;;0.00;0.00;;;;;13.31;56.35;100691.63;4993562;28;45656;-60
2021/05/22 21:50:33;;;;;;;;;0.00;0.00;;;;;13.32;56.17;100706.47;5012405;28;47874;-59
2021/05/22 21:52:59;;;;;;;;;0.00;0.00;;;;;13.32;56.32;100711.75;5003433;28;45496;-59
2021/05/22 21:55:27;;;;;;;;;0.00;0.00;;;;;13.29;56.60;100711.19;5013681;28;65037;-59
2021/05/22 21:57:52;;;;;;;;;0.00;0.00;;;;;13.29;56.65;100719.13;5008354;28;45391;-59
2021/05/22 22:00:31;;;;;;;;;0.00;0.00;;;;;13.27;57.10;100724.50;5000088;28;45446;-63
2021/05/22 22:03:00;;;;;;;;;0.00;0.00;;;;;13.27;56.73;100719.22;5012126;28;45498;-59
2021/05/22 22:05:26;;;;;;;;;0.00;0.00;;;;;13.31;56.71;100725.09;5015407;28;46420;-59
2021/05/22 22:07:52;;;;;;;;;0.00;0.00;;;;;13.34;56.71;100724.81;4993744;28;45833;-60
2021/05/22 22:10:17;;;;;;;;;0.00;0.00;;;;;13.35;56.80;100729.13;5003354;28;45483;-60
2021/05/22 22:12:42;;;;;;;;;0.00;0.00;;;;;13.31;56.83;100725.91;4993604;28;45539;-60
2021/05/22 22:15:08;;;;;;;;;0.00;0.00;;;;;13.30;56.96;100719.00;5017973;28;54704;-59
2021/05/22 22:17:33;;;;;;;;;0.00;0.00;;;;;13.29;56.99;100727.84;4983103;28;45748;-59
2021/05/22 22:19:59;;;;;;;;;0.00;0.00;;;;;13.30;56.58;100726.91;5003916;28;46547;-59
2021/05/22 22:22:24;;;;;;;;;0.00;0.00;;;;;13.29;56.72;100732.31;5002707;28;45923;-60
2021/05/22 22:24:50;;;;;;;;;0.00;0.00;;;;;13.26;56.90;100737.81;5015403;28;61156;-60
2021/05/22 22:27:15;;;;;;;;;0.00;0.00;;;;;13.24;57.15;100739.75;5006123;28;54639;-58
2021/05/22 22:29:40;;;;;;;;;0.00;0.00;;;;;13.20;56.60;100741.84;5014294;28;67543;-58
2021/05/22 22:32:06;;;;;;;;;0.00;0.00;;;;;13.19;56.61;100741.97;5016917;28;55092;-59
2021/05/22 22:34:31;;;;;;;;;0.00;0.00;;;;;13.14;56.77;100739.75;5007583;28;69640;-60
2021/05/22 22:36:57;;;;;;;;;0.00;0.00;;;;;13.13;56.96;100741.56;5015435;28;45512;-59
2021/05/22 22:39:23;;;;;;;;;0.00;0.00;;;;;13.11;56.57;100745.31;5015040;28;62640;-59
2021/05/22 22:41:48;;;;;;;;;0.00;0.00;;;;;13.09;56.82;100742.78;5006774;28;45552;-59
2021/05/22 22:44:14;;;;;;;;;0.00;0.00;;;;;13.07;57.88;100746.53;5008715;28;45714;-59
2021/05/22 22:46:39;;;;;;;;;0.00;0.00;;;;;13.07;57.14;100746.53;5006863;28;59074;-58
2021/05/22 22:49:05;;;;;;;;;0.00;0.00;;;;;13.06;57.24;100750.13;5017264;28;62467;-59
2021/05/22 22:51:30;;;;;;;;;0.00;0.00;;;;;13.06;56.50;100747.50;5018700;28;45651;-60
2021/05/22 22:53:55;;;;;;;;;0.00;0.00;;;;;13.03;57.21;100753.88;5003474;28;62561;-59
2021/05/22 22:56:23;;;;;;;;;0.00;0.00;;;;;13.04;57.10;100758.16;5007928;28;45367;-59
2021/05/22 22:58:48;;;;;;;;;0.00;0.00;;;;;13.00;56.84;100754.16;5008299;28;45786;-60
2021/05/22 23:01:15;;;;;;;;;0.00;0.00;;;;;12.96;56.99;100759.81;5001374;28;45699;-59
2021/05/22 23:03:41;;;;;;;;;0.00;0.00;;;;;12.95;56.86;100763.41;5012981;28;45780;-59
2021/05/22 23:06:06;;;;;;;;;0.00;0.00;;;;;12.94;56.87;100757.31;5011125;28;45728;-59
2021/05/22 23:08:33;;;;;;;;;0.00;0.00;;;;;12.89;57.17;100752.44;5013815;28;58481;-60
2021/05/22 23:10:59;;;;;;;;;0.00;0.00;;;;;12.88;57.03;100750.78;5008904;28;45427;-59
2021/05/22 23:13:24;;;;;;;;;0.00;0.00;;;;;12.87;57.03;100759.66;5009933;28;46332;-59
2021/05/22 23:15:50;;;;;;;;;0.00;0.00;;;;;12.88;57.50;100765.75;5005032;28;45679;-59
2021/05/22 23:18:15;;;;;;;;;0.00;0.00;;;;;12.87;57.15;100769.34;4994665;28;45446;-59
2021/05/22 23:20:41;;;;;;;;;0.00;0.00;;;;;12.86;57.63;100757.97;5005077;28;55931;-59
2021/05/22 23:23:06;;;;;;;;;0.00;0.00;;;;;12.88;57.46;100765.75;5006799;28;72403;-59
2021/05/22 23:25:32;;;;;;;;;0.00;0.00;;;;;12.87;57.65;100775.47;5006779;28;45498;-59
2021/05/22 23:27:57;;;;;;;;;0.00;0.00;;;;;12.85;57.39;100766.00;5004918;28;45722;-58
2021/05/22 23:30:32;;;;;;;;;0.00;0.00;;;;;12.85;57.52;100763.38;5005574;28;57643;-59